Time;durP1;ratioP1;P1;durP2;ratioP2;P2;SDS_P1;SDS_P2;PMS_P1;PMS_P2;Temp;Humidity;BMP_temperature;BMP_pressure;BME280_temperature;BME280_humidity;BME280_pressure;Samples;Min_cycle;Max_cycle;Signal;HPM_P1;HPM_P2
2024/02/22 00:00:29;;;;;;;;;;;;;;;21.18;27.88;98423.09;4984112;28;1494;-77
2024/02/22 00:02:55;;;;;;;;;;;;;;;21.04;27.98;98427.78;5025057;28;1025;-77
2024/02/22 00:05:20;;;;;;;;;;;;;;;21.03;27.99;98422.56;4985413;28;1983;-77
2024/02/22 00:07:46;;;;;;;;;;;;;;;21.15;27.81;98430.44;4985966;28;1063;-78
2024/02/22 00:10:12;;;;;;;;;;;;;;;20.69;28.13;98420.72;4929881;29;1457;-78
2024/02/22 00:12:39;;;;;;;;;;;;;;;20.88;28.04;98421.19;4932601;29;1004;-76
2024/02/22 00:15:05;;;;;;;;;;;;;;;20.57;28.65;98418.47;4925676;29;1359;-78
2024/02/22 00:17:31;;;;;;;;;;;;;;;20.84;28.27;98409.97;4913701;29;1141;-77
2024/02/22 00:19:56;;;;;;;;;;;;;;;20.94;28.17;98408.19;4933156;28;1488;-78
2024/02/22 00:22:22;;;;;;;;;;;;;;;21.17;28.19;98402.50;4929162;29;975;-78
2024/02/22 00:24:48;;;;;;;;;;;;;;;21.24;27.75;98405.22;4927375;29;968;-77
2024/02/22 00:27:13;;;;;;;;;;;;;;;21.42;27.64;98393.56;4897198;29;1911;-78
2024/02/22 00:29:38;;;;;;;;;;;;;;;21.41;27.52;98385.50;4926424;29;1380;-78
2024/02/22 00:32:04;;;;;;;;;;;;;;;21.25;27.74;98389.03;4928809;29;1116;-78
2024/02/22 00:34:30;;;;;;;;;;;;;;;21.16;27.64;98385.97;4911679;29;1318;-78
2024/02/22 00:36:55;;;;;;;;;;;;;;;20.68;28.44;98379.53;4929237;29;1028;-77
2024/02/22 00:39:21;;;;;;;;;;;;;;;20.88;28.31;98381.59;4927105;29;1520;-77
2024/02/22 00:41:46;;;;;;;;;;;;;;;21.15;27.90;98379.50;4932788;29;947;-78
2024/02/22 00:44:12;;;;;;;;;;;;;;;21.36;27.69;98377.53;4927583;29;1093;-77
2024/02/22 00:46:37;;;;;;;;;;;;;;;21.06;28.16;98382.88;4927110;29;1962;-78
2024/02/22 00:49:03;;;;;;;;;;;;;;;21.06;28.32;98382.88;4892726;29;1091;-78
2024/02/22 00:51:28;;;;;;;;;;;;;;;21.19;28.07;98377.41;4910166;29;1071;-77
2024/02/22 00:53:54;;;;;;;;;;;;;;;20.87;28.36;98371.53;4911258;29;1118;-78
2024/02/22 00:56:19;;;;;;;;;;;;;;;20.83;28.38;98373.59;4916621;29;1343;-77
2024/02/22 00:58:47;;;;;;;;;;;;;;;20.88;28.23;98376.78;4935105;28;971;-78
2024/02/22 01:01:13;;;;;;;;;;;;;;;21.11;28.16;98367.44;4987212;28;1523;-77
2024/02/22 01:03:38;;;;;;;;;;;;;;;21.15;28.07;98351.19;4953544;29;998;-78
2024/02/22 01:06:04;;;;;;;;;;;;;;;21.08;28.10;98337.97;4973320;28;1949;-78
2024/02/22 01:08:29;;;;;;;;;;;;;;;21.30;27.75;98344.06;4988005;28;1036;-78
2024/02/22 01:10:55;;;;;;;;;;;;;;;21.17;28.26;98337.41;4974231;28;1313;-77
2024/02/22 01:13:22;;;;;;;;;;;;;;;21.27;28.10;98336.41;4956503;28;1339;-78
2024/02/22 01:15:47;;;;;;;;;;;;;;;21.41;27.59;98328.91;4990272;28;983;-77
2024/02/22 01:18:13;;;;;;;;;;;;;;;21.18;27.81;98330.50;4971156;28;1344;-78
2024/02/22 01:20:39;;;;;;;;;;;;;;;20.75;28.36;98339.81;4994478;28;1013;-78
2024/02/22 01:23:06;;;;;;;;;;;;;;;21.15;27.94;98325.75;5030251;28;1314;-77
2024/02/22 01:25:31;;;;;;;;;;;;;;;21.17;27.88;98325.28;5029390;28;1962;-77
2024/02/22 01:27:57;;;;;;;;;;;;;;;21.11;28.18;98329.88;5028359;28;1476;-78
2024/02/22 01:30:22;;;;;;;;;;;;;;;21.29;27.86;98333.91;5030559;28;920;-76
2024/02/22 01:32:48;;;;;;;;;;;;;;;21.45;27.55;98323.94;5029560;28;904;-78
2024/02/22 01:35:13;;;;;;;;;;;;;;;21.22;27.67;98322.75;5024719;28;1450;-78
2024/02/22 01:37:39;;;;;;;;;;;;;;;21.03;27.83;98324.31;4977678;28;1113;-77
2024/02/22 01:40:08;;;;;;;;;;;;;;;20.74;28.01;98326.91;5008749;28;1198;-78
2024/02/22 01:42:33;;;;;;;;;;;;;;;21.28;27.48;98326.66;5009879;28;937;-78
2024/02/22 01:45:02;;;;;;;;;;;;;;;21.47;27.53;98321.47;5009043;28;1456;-77
2024/02/22 01:47:28;;;;;;;;;;;;;;;21.46;27.61;98331.22;5030113;28;1903;-77
2024/02/22 01:49:54;;;;;;;;;;;;;;;21.27;27.49;98333.56;5027977;28;887;-78
2024/02/22 01:52:21;;;;;;;;;;;;;;;21.09;28.09;98335.97;5012697;28;1251;-78
2024/02/22 01:54:47;;;;;;;;;;;;;;;21.17;28.11;98334.56;5028098;28;954;-78
2024/02/22 01:57:13;;;;;;;;;;;;;;;21.08;28.13;98337.19;5028296;28;1280;-77
2024/02/22 01:59:38;;;;;;;;;;;;;;;21.14;27.82;98332.63;5027726;28;952;-78
2024/02/22 02:02:04;;;;;;;;;;;;;;;20.84;28.12;98341.28;5029173;28;999;-78
2024/02/22 02:04:30;;;;;;;;;;;;;;;20.91;28.05;98341.16;5027558;28;2519;-78
2024/02/22 02:06:55;;;;;;;;;;;;;;;21.37;27.37;98328.16;5028660;28;1910;-78
2024/02/22 02:09:21;;;;;;;;;;;;;;;21.32;27.48;98329.47;5027694;28;1041;-78
2024/02/22 02:11:46;;;;;;;;;;;;;;;21.23;27.91;98334.88;5027452;28;1605;-78
2024/02/22 02:14:12;;;;;;;;;;;;;;;21.02;27.96;98336.09;5026511;28;1126;-77
2024/02/22 02:16:37;;;;;;;;;;;;;;;21.38;27.53;98329.75;4997871;28;1463;-78
2024/02/22 02:19:07;;;;;;;;;;;;;;;21.48;27.51;98328.75;5006202;28;973;-77
2024/02/22 02:21:36;;;;;;;;;;;;;;;21.35;27.64;98324.94;4992143;28;1032;-77
2024/02/22 02:24:14;;;;;;;;;;;;;;;20.70;28.25;98326.16;4990229;28;1014;-78
2024/02/22 02:26:39;;;;;;;;;;;;;;;20.64;28.06;98319.41;5021091;28;1879;-77
2024/02/22 02:29:05;;;;;;;;;;;;;;;21.08;28.10;98320.19;5026177;28;1211;-77
2024/02/22 02:31:30;;;;;;;;;;;;;;;21.05;28.12;98323.91;5011123;28;1006;-79
2024/02/22 02:33:56;;;;;;;;;;;;;;;21.28;27.44;98332.34;5026230;28;942;-78
2024/02/22 02:36:21;;;;;;;;;;;;;;;21.24;27.58;98325.13;5000120;28;1476;-78
2024/02/22 02:38:47;;;;;;;;;;;;;;;21.19;27.61;98328.47;5006006;28;984;-77
2024/02/22 02:41:12;;;;;;;;;;;;;;;21.37;27.71;98333.81;4991750;28;1204;-78
2024/02/22 02:43:38;;;;;;;;;;;;;;;21.28;27.77;98326.66;4987001;28;1120;-77
2024/02/22 02:46:03;;;;;;;;;;;;;;;20.87;28.10;98329.09;4997029;28;1887;-77
2024/02/22 02:48:29;;;;;;;;;;;;;;;20.78;27.94;98327.66;5006374;28;1006;-78
2024/02/22 02:50:54;;;;;;;;;;;;;;;20.67;28.20;98324.19;5009643;28;973;-77
2024/02/22 02:53:22;;;;;;;;;;;;;;;21.01;28.26;98323.19;5007114;28;993;-78
2024/02/22 02:55:47;;;;;;;;;;;;;;;21.41;27.58;98321.19;5008149;28;1442;-78
2024/02/22 02:58:13;;;;;;;;;;;;;;;21.32;27.68;98327.44;5005540;28;997;-77
2024/02/22 03:00:38;;;;;;;;;;;;;;;21.09;27.87;98319.00;4990725;28;1101;-77
2024/02/22 03:03:04;;;;;;;;;;;;;;;21.22;27.64;98311.44;4954192;28;1484;-77
2024/02/22 03:05:29;;;;;;;;;;;;;;;21.40;27.43;98311.13;4970819;28;1883;-78
2024/02/22 03:07:55;;;;;;;;;;;;;;;21.03;27.76;98315.84;4955377;28;966;-78
2024/02/22 03:10:21;;;;;;;;;;;;;;;20.46;28.48;98311.22;4970971;28;1225;-77
2024/02/22 03:12:46;;;;;;;;;;;;;;;20.37;28.42;98301.69;4970789;28;1076;-78
2024/02/22 03:15:13;;;;;;;;;;;;;;;21.02;28.11;98307.78;4968944;28;1434;-78
2024/02/22 03:17:39;;;;;;;;;;;;;;;20.99;27.99;98308.69;4987608;28;1008;-78
2024/02/22 03:20:09;;;;;;;;;;;;;;;21.10;27.93;98309.25;4970354;28;999;-77
2024/02/22 03:22:39;;;;;;;;;;;;;;;21.20;27.60;98308.25;4971883;28;957;-78
2024/02/22 03:25:05;;;;;;;;;;;;;;;21.27;27.56;98313.75;4930949;29;1470;-77
2024/02/22 03:27:32;;;;;;;;;;;;;;;21.33;27.52;98312.03;4932385;29;1914;-77
2024/02/22 03:29:58;;;;;;;;;;;;;;;20.53;28.26;98315.97;4951294;29;1041;-78
2024/02/22 03:32:23;;;;;;;;;;;;;;;20.88;27.75;98308.06;4949045;29;1025;-78
2024/02/22 03:34:49;;;;;;;;;;;;;;;21.06;28.04;98312.16;4972096;28;1475;-77
2024/02/22 03:37:14;;;;;;;;;;;;;;;20.99;27.81;98311.50;5003052;28;1375;-78
2024/02/22 03:39:41;;;;;;;;;;;;;;;21.12;27.81;98306.78;4973911;28;1464;-77
2024/02/22 03:42:08;;;;;;;;;;;;;;;21.12;27.60;98312.44;4972738;28;1430;-77
2024/02/22 03:44:34;;;;;;;;;;;;;;;21.22;27.57;98311.44;4969970;28;1054;-78
2024/02/22 03:47:00;;;;;;;;;;;;;;;21.19;27.51;98323.66;4971946;28;1919;-78
2024/02/22 03:49:25;;;;;;;;;;;;;;;21.29;27.57;98316.16;4969748;28;1036;-77
2024/02/22 03:51:52;;;;;;;;;;;;;;;21.21;27.60;98315.50;4980800;28;1507;-78
2024/02/22 03:54:17;;;;;;;;;;;;;;;21.16;27.74;98324.50;4953887;28;1200;-78
2024/02/22 03:56:43;;;;;;;;;;;;;;;20.43;28.90;98322.56;4968734;28;1670;-78
2024/02/22 03:59:08;;;;;;;;;;;;;;;20.67;28.06;98324.19;4949334;28;1492;-78
2024/02/22 04:01:35;;;;;;;;;;;;;;;20.61;28.75;98328.75;4957716;28;963;-77
2024/02/22 04:04:01;;;;;;;;;;;;;;;21.22;27.83;98334.06;4986425;28;1745;-78
2024/02/22 04:06:27;;;;;;;;;;;;;;;21.30;27.54;98335.56;4970789;28;1887;-77
2024/02/22 04:08:52;;;;;;;;;;;;;;;21.22;27.63;98334.06;4969736;28;1353;-77
2024/02/22 04:11:18;;;;;;;;;;;;;;;21.30;27.47;98341.22;4986858;28;1082;-77
2024/02/22 04:13:43;;;;;;;;;;;;;;;21.38;27.53;98338.25;4968410;28;908;-77
2024/02/22 04:16:09;;;;;;;;;;;;;;;20.93;27.83;98347.16;4987185;28;1426;-78
2024/02/22 04:18:34;;;;;;;;;;;;;;;20.48;28.65;98337.06;4968450;28;940;-79
2024/02/22 04:21:00;;;;;;;;;;;;;;;20.79;28.42;98336.94;4987028;28;1636;-77
2024/02/22 04:23:26;;;;;;;;;;;;;;;21.29;27.36;98339.59;4984729;28;1111;-78
2024/02/22 04:25:51;;;;;;;;;;;;;;;21.02;27.72;98341.75;4986926;28;1975;-77
2024/02/22 04:28:18;;;;;;;;;;;;;;;21.11;27.79;98344.81;4932840;29;1020;-78
2024/02/22 04:30:45;;;;;;;;;;;;;;;21.29;27.44;98338.78;4952610;29;957;-79
2024/02/22 04:33:10;;;;;;;;;;;;;;;21.34;27.53;98346.81;4934618;29;992;-77
2024/02/22 04:35:36;;;;;;;;;;;;;;;21.16;27.46;98338.66;4936462;29;1296;-76
2024/02/22 04:38:02;;;;;;;;;;;;;;;20.80;27.84;98341.34;4966166;28;1454;-77
2024/02/22 04:40:28;;;;;;;;;;;;;;;21.01;27.90;98335.28;4916627;29;1514;-78
2024/02/22 04:42:53;;;;;;;;;;;;;;;21.26;27.67;98329.16;4916265;29;937;-77
2024/02/22 04:45:19;;;;;;;;;;;;;;;21.36;27.37;98335.06;4932422;29;1031;-78
2024/02/22 04:47:45;;;;;;;;;;;;;;;21.10;27.61;98325.44;4916015;29;1914;-77
2024/02/22 04:50:11;;;;;;;;;;;;;;;21.01;27.80;98328.84;4916311;29;1248;-78
2024/02/22 04:52:36;;;;;;;;;;;;;;;21.42;27.11;98334.13;4932545;29;1026;-78
2024/02/22 04:55:03;;;;;;;;;;;;;;;21.35;27.31;98325.78;4915541;29;1012;-78
2024/02/22 04:57:28;;;;;;;;;;;;;;;21.09;27.37;98335.97;4932041;29;1428;-77
2024/02/22 04:59:54;;;;;;;;;;;;;;;20.73;27.89;98339.44;4929680;29;2154;-77
2024/02/22 05:02:20;;;;;;;;;;;;;;;20.52;28.31;98337.78;4919652;29;1949;-77
2024/02/22 05:04:46;;;;;;;;;;;;;;;20.88;27.72;98339.16;4920534;29;1327;-78
2024/02/22 05:07:11;;;;;;;;;;;;;;;21.09;27.78;98341.63;4954589;29;1950;-78
2024/02/22 05:09:37;;;;;;;;;;;;;;;21.03;27.56;98332.03;4969502;29;984;-77
2024/02/22 05:12:02;;;;;;;;;;;;;;;21.18;27.51;98332.53;5001813;28;1005;-77
2024/02/22 05:14:28;;;;;;;;;;;;;;;21.29;27.34;98339.59;4991967;28;1016;-78
2024/02/22 05:16:53;;;;;;;;;;;;;;;21.00;27.68;98344.22;5010221;28;976;-77
2024/02/22 05:19:19;;;;;;;;;;;;;;;21.19;27.23;98336.97;5007337;28;980;-77
2024/02/22 05:21:51;;;;;;;;;;;;;;;20.93;27.64;98330.97;5009070;28;877;-78
2024/02/22 05:24:17;;;;;;;;;;;;;;;21.22;27.40;98330.44;5007969;28;1031;-78
2024/02/22 05:26:42;;;;;;;;;;;;;;;20.73;28.07;98341.47;5008747;28;1883;-78
2024/02/22 05:29:08;;;;;;;;;;;;;;;20.48;28.18;98348.34;4991610;28;1086;-78
2024/02/22 05:31:34;;;;;;;;;;;;;;;21.05;27.66;98335.22;5009005;28;943;-78
2024/02/22 05:33:59;;;;;;;;;;;;;;;20.99;27.81;98342.63;4991226;28;997;-78
2024/02/22 05:36:25;;;;;;;;;;;;;;;21.10;27.53;98343.22;4975833;28;982;-78
2024/02/22 05:38:50;;;;;;;;;;;;;;;21.10;27.68;98346.03;4986717;28;1219;-77
2024/02/22 05:41:16;;;;;;;;;;;;;;;21.10;27.56;98354.53;4956849;28;1038;-78
2024/02/22 05:43:41;;;;;;;;;;;;;;;21.32;27.22;98350.06;4970831;28;961;-78
2024/02/22 05:46:07;;;;;;;;;;;;;;;21.31;27.43;98356.97;4972947;28;1969;-78
2024/02/22 05:48:33;;;;;;;;;;;;;;;21.20;27.45;98353.53;4969924;28;903;-77
2024/02/22 05:50:58;;;;;;;;;;;;;;;20.77;28.00;98353.50;4973463;28;920;-77
2024/02/22 05:53:24;;;;;;;;;;;;;;;20.34;28.29;98347.75;4986398;28;1000;-78
2024/02/22 05:55:49;;;;;;;;;;;;;;;20.89;28.11;98360.59;4988766;28;906;-77
2024/02/22 05:58:16;;;;;;;;;;;;;;;21.21;27.29;98357.94;4971142;28;1606;-78
2024/02/22 06:00:42;;;;;;;;;;;;;;;21.03;27.45;98368.78;4956544;28;1117;-78
2024/02/22 06:03:08;;;;;;;;;;;;;;;21.21;27.24;98366.44;4986900;28;914;-78
2024/02/22 06:05:34;;;;;;;;;;;;;;;21.37;27.24;98367.78;4972087;28;1883;-78
2024/02/22 06:08:00;;;;;;;;;;;;;;;21.25;27.35;98367.19;4939199;28;1234;-76
2024/02/22 06:10:27;;;;;;;;;;;;;;;20.78;27.96;98366.44;4988075;28;945;-78
2024/02/22 06:12:53;;;;;;;;;;;;;;;20.87;27.64;98374.34;4971395;28;1014;-77
2024/02/22 06:15:18;;;;;;;;;;;;;;;20.39;28.44;98372.69;4990246;28;1007;-77
2024/02/22 06:17:44;;;;;;;;;;;;;;;21.13;27.35;98376.28;5009807;28;930;-78
2024/02/22 06:20:10;;;;;;;;;;;;;;;21.21;27.26;98377.75;5009604;28;910;-77
2024/02/22 06:22:35;;;;;;;;;;;;;;;21.18;27.30;98378.63;4987105;28;1306;-78
2024/02/22 06:25:01;;;;;;;;;;;;;;;21.13;27.46;98373.47;4970810;28;1210;-77
2024/02/22 06:27:27;;;;;;;;;;;;;;;21.12;27.60;98376.72;4988349;28;1883;-77
2024/02/22 06:29:52;;;;;;;;;;;;;;;21.19;27.31;98380.25;4970148;28;1149;-78
2024/02/22 06:32:18;;;;;;;;;;;;;;;21.33;27.32;98379.97;4987700;28;863;-77
2024/02/22 06:34:43;;;;;;;;;;;;;;;21.40;27.03;98381.06;4970870;28;1003;-78
2024/02/22 06:37:10;;;;;;;;;;;;;;;20.87;27.79;98385.66;4988083;28;981;-78
2024/02/22 06:39:35;;;;;;;;;;;;;;;20.71;27.84;98389.16;4970016;28;996;-77
2024/02/22 06:42:01;;;;;;;;;;;;;;;21.14;27.35;98394.88;4972031;28;943;-77
2024/02/22 06:44:27;;;;;;;;;;;;;;;21.14;27.40;98400.53;4970757;28;1259;-77
2024/02/22 06:46:52;;;;;;;;;;;;;;;21.27;27.17;98404.31;4971695;28;1891;-77
2024/02/22 06:49:18;;;;;;;;;;;;;;;21.12;27.50;98397.34;4969718;28;760;-78
2024/02/22 06:51:44;;;;;;;;;;;;;;;21.29;27.36;98401.84;4954686;28;904;-78
2024/02/22 06:54:09;;;;;;;;;;;;;;;21.44;27.11;98395.94;4969796;28;852;-77
2024/02/22 06:56:35;;;;;;;;;;;;;;;20.69;27.79;98395.25;4971319;28;1133;-77
2024/02/22 06:59:00;;;;;;;;;;;;;;;20.44;28.15;98392.00;4988098;28;937;-78
2024/02/22 07:01:26;;;;;;;;;;;;;;;20.80;28.08;98393.03;5006638;28;1047;-78
2024/02/22 07:03:51;;;;;;;;;;;;;;;20.99;27.51;98394.34;5005900;28;1056;-77
2024/02/22 07:06:17;;;;;;;;;;;;;;;21.17;27.35;98388.34;4992099;28;1977;-77
2024/02/22 07:08:42;;;;;;;;;;;;;;;21.35;26.98;98381.56;5007489;28;819;-78
2024/02/22 07:11:13;;;;;;;;;;;;;;;21.26;27.37;98377.25;4992355;28;1336;-77
2024/02/22 07:13:39;;;;;;;;;;;;;;;21.15;27.51;98373.84;5005828;28;911;-78
2024/02/22 07:16:04;;;;;;;;;;;;;;;21.33;27.06;98374.31;5008521;28;931;-77
2024/02/22 07:18:30;;;;;;;;;;;;;;;21.37;27.31;98373.44;5005462;28;962;-77
2024/02/22 07:20:59;;;;;;;;;;;;;;;21.09;27.28;98381.25;4992723;28;1122;-77
2024/02/22 07:23:24;;;;;;;;;;;;;;;20.98;27.38;98383.44;5006777;28;962;-77
2024/02/22 07:25:50;;;;;;;;;;;;;;;20.87;28.05;98385.66;5007189;28;1918;-78
2024/02/22 07:28:15;;;;;;;;;;;;;;;20.90;27.82;98384.81;5016721;28;1069;-77
2024/02/22 07:30:41;;;;;;;;;;;;;;;20.92;27.71;98382.34;5048535;28;866;-78
2024/02/22 07:33:09;;;;;;;;;;;;;;;21.03;27.93;98371.63;5046179;28;885;-77
2024/02/22 07:35:35;;;;;;;;;;;;;;;21.07;27.61;98375.19;5031075;28;1055;-77
2024/02/22 07:38:00;;;;;;;;;;;;;;;21.25;27.32;98378.50;4995387;28;1025;-77
2024/02/22 07:40:26;;;;;;;;;;;;;;;21.13;27.34;98381.94;5048168;28;967;-77
2024/02/22 07:42:51;;;;;;;;;;;;;;;21.14;27.14;98388.41;5047212;28;1101;-78
2024/02/22 07:45:18;;;;;;;;;;;;;;;20.53;28.17;98384.63;5029804;28;959;-78
2024/02/22 07:47:43;;;;;;;;;;;;;;;20.96;27.52;98389.53;5046451;28;1981;-78
2024/02/22 07:50:10;;;;;;;;;;;;;;;21.17;27.34;98391.19;5045648;28;954;-77
2024/02/22 07:52:39;;;;;;;;;;;;;;;21.18;27.57;98392.75;5047544;28;934;-77
2024/02/22 07:55:05;;;;;;;;;;;;;;;21.31;27.17;98385.28;5029205;28;947;-76
2024/02/22 07:57:31;;;;;;;;;;;;;;;21.22;27.25;98379.34;4990507;28;921;-78
2024/02/22 07:59:57;;;;;;;;;;;;;;;21.15;27.56;98385.16;4988650;28;1035;-78
2024/02/22 08:02:23;;;;;;;;;;;;;;;20.84;27.87;98380.88;4970878;28;1090;-77
2024/02/22 08:04:50;;;;;;;;;;;;;;;20.97;27.76;98379.81;4953079;28;1216;-77
2024/02/22 08:07:16;;;;;;;;;;;;;;;20.63;28.28;98371.53;4971114;28;1992;-78
2024/02/22 08:09:41;;;;;;;;;;;;;;;21.40;27.13;98381.06;4952698;28;1046;-78
2024/02/22 08:12:07;;;;;;;;;;;;;;;21.37;27.27;98373.44;4986463;28;977;-78
2024/02/22 08:14:32;;;;;;;;;;;;;;;21.31;27.38;98373.97;4952935;28;1291;-78
2024/02/22 08:16:58;;;;;;;;;;;;;;;21.32;27.32;98371.94;4954321;28;978;-78
2024/02/22 08:19:23;;;;;;;;;;;;;;;21.28;27.51;98377.63;4953038;28;1149;-78
2024/02/22 08:21:51;;;;;;;;;;;;;;;21.25;27.38;98380.53;4970677;28;945;-78
2024/02/22 08:24:17;;;;;;;;;;;;;;;20.92;27.76;98383.13;4930796;29;1292;-78
2024/02/22 08:26:42;;;;;;;;;;;;;;;20.91;28.01;98380.75;4947779;29;1907;-78
2024/02/22 08:29:08;;;;;;;;;;;;;;;21.18;27.78;98384.28;4942073;29;1203;-78
2024/02/22 08:31:34;;;;;;;;;;;;;;;21.13;27.56;98386.81;4947803;29;1091;-78
2024/02/22 08:33:59;;;;;;;;;;;;;;;21.25;27.59;98377.69;4946163;29;983;-77
2024/02/22 08:36:25;;;;;;;;;;;;;;;21.25;27.55;98375.66;4947971;29;1257;-78
2024/02/22 08:38:50;;;;;;;;;;;;;;;21.24;27.57;98376.91;4951296;28;1057;-77
2024/02/22 08:41:16;;;;;;;;;;;;;;;21.31;27.28;98373.97;4969947;28;1211;-78
2024/02/22 08:43:42;;;;;;;;;;;;;;;20.95;27.65;98387.16;4984924;28;1120;-78
2024/02/22 08:46:07;;;;;;;;;;;;;;;20.44;28.34;98375.03;4970677;28;1956;-78
2024/02/22 08:48:35;;;;;;;;;;;;;;;21.17;27.33;98371.38;4952196;28;1251;-78
2024/02/22 08:51:01;;;;;;;;;;;;;;;21.26;27.37;98382.91;4970179;28;1259;-78
2024/02/22 08:53:26;;;;;;;;;;;;;;;21.27;27.33;98381.69;4984467;28;1231;-78
2024/02/22 08:56:11;;;;;;;;;;;;;;;21.32;27.36;98372.72;5030777;28;986;-78
2024/02/22 08:59:19;;;;;;;;;;;;;;;21.18;27.50;98372.97;4990696;28;1131;-78
2024/02/22 09:01:47;;;;;;;;;;;;;;;21.35;27.29;98367.41;5009313;28;1007;-77
2024/02/22 09:04:12;;;;;;;;;;;;;;;20.90;27.90;98374.28;5007549;28;963;-78
2024/02/22 09:06:42;;;;;;;;;;;;;;;20.95;27.49;98370.19;5025794;28;1902;-78
2024/02/22 09:09:13;;;;;;;;;;;;;;;20.53;28.45;98369.69;4991337;28;1141;-78
2024/02/22 09:11:39;;;;;;;;;;;;;;;21.10;27.73;98377.16;5025576;28;979;-78
2024/02/22 09:14:26;;;;;;;;;;;;;;;20.92;27.70;98371.03;5025493;28;1116;-77
2024/02/22 09:17:11;;;;;;;;;;;;;;;21.05;27.50;98372.00;4931496;29;970;-78
2024/02/22 09:19:37;;;;;;;;;;;;;;;21.14;27.73;98366.59;4914736;29;1024;-78
2024/02/22 09:22:03;;;;;;;;;;;;;;;21.24;27.45;98359.94;4932281;29;970;-78
2024/02/22 09:24:29;;;;;;;;;;;;;;;21.38;26.95;98363.72;4898885;29;1213;-78
2024/02/22 09:26:55;;;;;;;;;;;;;;;21.23;27.19;98358.31;4900752;29;1891;-78
2024/02/22 09:29:21;;;;;;;;;;;;;;;20.77;27.89;98359.16;4925222;29;1146;-78
2024/02/22 09:31:46;;;;;;;;;;;;;;;20.57;27.96;98361.91;4970580;29;976;-79
2024/02/22 09:34:12;;;;;;;;;;;;;;;21.14;27.74;98355.28;4968544;29;1011;-78
2024/02/22 09:36:40;;;;;;;;;;;;;;;21.19;27.57;98351.94;4954117;29;808;-78
2024/02/22 09:39:06;;;;;;;;;;;;;;;21.09;27.71;98352.94;4968070;29;924;-78
2024/02/22 09:41:31;;;;;;;;;;;;;;;21.20;27.58;98353.53;4968995;29;928;-77
2024/02/22 09:43:57;;;;;;;;;;;;;;;21.23;27.33;98347.00;4951847;29;1083;-79
2024/02/22 09:46:22;;;;;;;;;;;;;;;21.39;27.19;98348.31;4936672;29;1941;-78
2024/02/22 09:48:48;;;;;;;;;;;;;;;21.40;27.21;98344.25;4958953;28;1110;-78
2024/02/22 09:51:13;;;;;;;;;;;;;;;21.23;27.17;98338.50;5028337;28;995;-78
2024/02/22 09:53:39;;;;;;;;;;;;;;;20.91;27.69;98341.16;4986651;28;996;-77
2024/02/22 09:56:06;;;;;;;;;;;;;;;20.91;27.88;98347.59;4989429;28;842;-77
2024/02/22 09:58:31;;;;;;;;;;;;;;;21.05;27.65;98335.22;4985626;28;950;-78
2024/02/22 10:00:57;;;;;;;;;;;;;;;21.13;27.67;98330.22;4988896;28;893;-78
2024/02/22 10:03:30;;;;;;;;;;;;;;;21.24;27.52;98325.13;4957009;29;1312;-78
2024/02/22 10:05:55;;;;;;;;;;;;;;;21.31;27.18;98337.16;4950929;29;1884;-79
2024/02/22 10:08:22;;;;;;;;;;;;;;;21.24;27.52;98330.81;4993166;28;1216;-78
2024/02/22 10:10:48;;;;;;;;;;;;;;;21.21;27.30;98326.81;5008409;28;1287;-78
2024/02/22 10:13:20;;;;;;;;;;;;;;;21.33;27.01;98323.38;4989754;28;969;-78
2024/02/22 10:15:45;;;;;;;;;;;;;;;21.46;26.97;98320.69;4992224;28;1108;-78
2024/02/22 10:18:11;;;;;;;;;;;;;;;21.14;27.27;98314.84;5005504;28;969;-78
2024/02/22 10:20:37;;;;;;;;;;;;;;;21.11;27.36;98316.50;4991257;28;1048;-78
2024/02/22 10:23:06;;;;;;;;;;;;;;;21.35;27.05;98307.97;4948118;29;1294;-78
2024/02/22 10:25:32;;;;;;;;;;;;;;;21.29;27.34;98310.47;4951431;28;1000;-78
2024/02/22 10:27:57;;;;;;;;;;;;;;;21.18;27.45;98299.38;4971269;28;1914;-79
2024/02/22 10:30:25;;;;;;;;;;;;;;;21.21;27.49;98295.69;4970928;28;1009;-79
2024/02/22 10:32:51;;;;;;;;;;;;;;;21.17;27.55;98292.13;4971709;28;1049;-78
2024/02/22 10:35:18;;;;;;;;;;;;;;;21.13;27.65;98291.41;4968815;28;1023;-78
2024/02/22 10:37:44;;;;;;;;;;;;;;;20.92;27.77;98291.81;4987674;28;933;-78
2024/02/22 10:40:11;;;;;;;;;;;;;;;20.92;27.74;98289.00;4987092;28;979;-78
2024/02/22 10:42:38;;;;;;;;;;;;;;;20.44;28.47;98291.06;4972073;28;1133;-79
2024/02/22 10:45:04;;;;;;;;;;;;;;;20.96;27.89;98293.34;4954101;28;1022;-77
2024/02/22 10:47:29;;;;;;;;;;;;;;;21.25;27.09;98276.63;4955765;28;1911;-78
2024/02/22 10:49:55;;;;;;;;;;;;;;;21.23;27.21;98267.75;4970279;28;865;-79
2024/02/22 10:52:22;;;;;;;;;;;;;;;21.14;27.56;98276.03;4987285;28;1041;-79
2024/02/22 10:54:51;;;;;;;;;;;;;;;21.24;27.48;98272.19;5015896;28;900;-78
2024/02/22 10:57:18;;;;;;;;;;;;;;;21.37;27.24;98261.03;5029058;28;850;-79
2024/02/22 10:59:44;;;;;;;;;;;;;;;21.14;27.15;98253.41;5026539;28;904;-78
2024/02/22 11:02:09;;;;;;;;;;;;;;;20.93;27.77;98248.94;5027807;28;882;-79
2024/02/22 11:04:35;;;;;;;;;;;;;;;20.79;27.84;98250.06;5025688;28;988;-79
2024/02/22 11:07:04;;;;;;;;;;;;;;;21.20;27.22;98257.31;5026737;28;1962;-78
2024/02/22 11:09:36;;;;;;;;;;;;;;;21.29;27.09;98240.53;5026365;28;906;-79
2024/02/22 11:12:01;;;;;;;;;;;;;;;21.17;27.51;98238.38;5027302;28;882;-79
2024/02/22 11:14:31;;;;;;;;;;;;;;;21.23;27.32;98242.28;5010015;28;1033;-79
2024/02/22 11:16:59;;;;;;;;;;;;;;;21.25;27.29;98231.34;5011402;28;918;-79
2024/02/22 11:19:25;;;;;;;;;;;;;;;21.40;26.95;98225.38;5026221;28;865;-78
2024/02/22 11:21:51;;;;;;;;;;;;;;;21.41;26.69;98218.50;5027502;28;1074;-79
2024/02/22 11:24:23;;;;;;;;;;;;;;;20.90;27.63;98220.75;5026301;28;848;-79
2024/02/22 11:26:50;;;;;;;;;;;;;;;20.71;27.64;98214.66;5026817;28;1906;-78
2024/02/22 11:29:29;;;;;;;;;;;;;;;20.90;27.74;98213.06;5009622;28;1043;-78
2024/02/22 11:32:01;;;;;;;;;;;;;;;20.90;27.48;98220.75;5026949;28;914;-79
2024/02/22 11:34:26;;;;;;;;;;;;;;;21.00;27.53;98214.09;5008753;28;886;-79
2024/02/22 11:37:11;;;;;;;;;;;;;;;21.26;27.38;98206.66;5025975;28;997;-78
2024/02/22 11:39:37;;;;;;;;;;;;;;;21.42;27.06;98201.06;5024457;28;881;-79
2024/02/22 11:42:04;;;;;;;;;;;;;;;21.47;26.87;98196.91;5027402;28;907;-78
2024/02/22 11:44:30;;;;;;;;;;;;;;;21.00;27.47;98197.13;5023142;28;778;-79
2024/02/22 11:46:58;;;;;;;;;;;;;;;21.32;26.93;98191.56;5025454;28;1956;-79
2024/02/22 11:49:23;;;;;;;;;;;;;;;21.33;27.32;98187.50;5023890;28;724;-78
2024/02/22 11:51:49;;;;;;;;;;;;;;;21.30;27.01;98191.22;5024163;28;810;-77
2024/02/22 11:54:19;;;;;;;;;;;;;;;21.20;27.44;98180.91;5021578;28;858;-77
2024/02/22 11:56:45;;;;;;;;;;;;;;;21.13;27.29;98183.88;4986550;28;1563;-78
2024/02/22 11:59:11;;;;;;;;;;;;;;;21.39;26.88;98184.16;5000672;28;973;-79
2024/02/22 12:01:38;;;;;;;;;;;;;;;21.08;27.41;98187.22;5001866;28;895;-79
2024/02/22 12:04:04;;;;;;;;;;;;;;;20.55;27.84;98187.09;4984595;28;970;-78
2024/02/22 12:06:29;;;;;;;;;;;;;;;20.80;27.86;98180.94;4986267;28;1906;-78
2024/02/22 12:08:55;;;;;;;;;;;;;;;21.17;27.44;98178.16;4984873;28;984;-78
2024/02/22 12:11:21;;;;;;;;;;;;;;;21.31;27.18;98173.00;4954633;28;1235;-78
2024/02/22 12:13:56;;;;;;;;;;;;;;;21.30;27.21;98171.41;4969163;28;930;-78
2024/02/22 12:16:21;;;;;;;;;;;;;;;21.14;27.58;98179.00;5002799;28;925;-78
2024/02/22 12:18:47;;;;;;;;;;;;;;;21.43;27.08;98167.88;4984040;28;1057;-78
2024/02/22 12:21:13;;;;;;;;;;;;;;;21.45;27.08;98166.22;4986591;28;869;-78
2024/02/22 12:23:39;;;;;;;;;;;;;;;21.44;26.75;98166.66;4984668;28;1017;-78
2024/02/22 12:26:07;;;;;;;;;;;;;;;21.17;27.13;98167.63;5002969;28;1875;-79
2024/02/22 12:28:34;;;;;;;;;;;;;;;20.94;27.65;98168.53;4980690;28;1261;-78
2024/02/22 12:31:00;;;;;;;;;;;;;;;21.31;27.40;98169.38;4986927;28;882;-78
2024/02/22 12:33:26;;;;;;;;;;;;;;;21.53;26.86;98166.84;4983645;28;1534;-78
2024/02/22 12:35:51;;;;;;;;;;;;;;;21.36;26.92;98153.91;4986750;28;846;-78
2024/02/22 12:38:17;;;;;;;;;;;;;;;21.31;27.33;98156.03;4983511;28;1116;-77
2024/02/22 12:40:44;;;;;;;;;;;;;;;21.36;26.96;98159.56;4986209;28;775;-78
2024/02/22 12:43:12;;;;;;;;;;;;;;;21.26;27.41;98159.34;4984704;28;882;-77
2024/02/22 12:45:38;;;;;;;;;;;;;;;20.69;27.90;98163.41;4962747;29;1987;-78
2024/02/22 12:48:04;;;;;;;;;;;;;;;20.72;27.74;98148.38;4961737;28;1082;-78
2024/02/22 12:50:30;;;;;;;;;;;;;;;21.16;27.35;98146.22;4966769;29;881;-78
2024/02/22 12:52:55;;;;;;;;;;;;;;;21.08;27.74;98148.41;4950424;29;1582;-78
2024/02/22 12:55:21;;;;;;;;;;;;;;;21.33;27.25;98145.03;4934324;29;1218;-78